Time;durP1;ratioP1;P1;durP2;ratioP2;P2;SDS_P1;SDS_P2;PMS_P1;PMS_P2;Temp;Humidity;BMP_temperature;BMP_pressure;BME280_temperature;BME280_humidity;BME280_pressure;Samples;Min_cycle;Max_cycle;Signal;HPM_P1;HPM_P2
2023/09/26 00:01:02;;;;;;;12.65;8.25;;;10.60;99.90;;;;;;5134410;28;20032;-72
2023/09/26 00:03:28;;;;;;;11.15;8.65;;;10.60;99.90;;;;;;5133795;28;20019;-72
2023/09/26 00:05:55;;;;;;;10.45;7.95;;;10.60;99.90;;;;;;5134660;28;20063;-72
2023/09/26 00:08:20;;;;;;;11.18;8.02;;;10.60;99.90;;;;;;5134686;27;20138;-72
2023/09/26 00:10:46;;;;;;;11.07;8.80;;;10.60;99.90;;;;;;5134657;28;20508;-72
2023/09/26 00:13:13;;;;;;;12.05;7.93;;;10.60;99.90;;;;;;5134631;27;20481;-72
2023/09/26 00:15:40;;;;;;;17.25;10.15;;;10.60;99.90;;;;;;5134472;27;20050;-72
2023/09/26 00:18:06;;;;;;;15.23;9.05;;;10.60;99.90;;;;;;5134624;27;20031;-72
2023/09/26 00:20:34;;;;;;;12.88;7.38;;;10.70;99.90;;;;;;5134314;28;20076;-73
2023/09/26 00:23:00;;;;;;;13.23;9.18;;;10.60;99.90;;;;;;5134550;27;20092;-72
2023/09/26 00:25:26;;;;;;;16.70;10.32;;;10.60;99.90;;;;;;5134540;28;20465;-72
2023/09/26 00:27:52;;;;;;;13.77;9.10;;;10.70;99.90;;;;;;5134084;28;20051;-72
2023/09/26 00:30:19;;;;;;;16.80;10.52;;;10.60;99.90;;;;;;5134094;27;20027;-72
2023/09/26 00:32:45;;;;;;;12.07;9.95;;;10.70;99.90;;;;;;5134268;27;20027;-72
2023/09/26 00:35:12;;;;;;;14.55;9.52;;;10.70;99.90;;;;;;5134652;28;20030;-72
2023/09/26 00:37:39;;;;;;;11.48;8.93;;;10.70;99.90;;;;;;5133738;27;20139;-72
2023/09/26 00:40:10;;;;;;;10.95;8.10;;;10.70;99.90;;;;;;5133550;27;20485;-72
2023/09/26 00:42:35;;;;;;;12.23;8.25;;;10.60;99.90;;;;;;5134621;27;20055;-72
2023/09/26 00:45:01;;;;;;;15.00;9.27;;;10.50;99.90;;;;;;5134202;28;20059;-71
2023/09/26 00:47:27;;;;;;;13.73;10.13;;;10.50;99.90;;;;;;5135809;27;20487;-72
2023/09/26 00:49:52;;;;;;;12.57;8.70;;;10.60;99.90;;;;;;5138006;27;20046;-71
2023/09/26 00:52:18;;;;;;;13.40;9.23;;;10.60;99.90;;;;;;5137709;27;20027;-72
2023/09/26 00:54:43;;;;;;;14.95;10.25;;;10.60;99.90;;;;;;5137367;27;20031;-72
2023/09/26 00:57:10;;;;;;;12.70;9.13;;;10.60;99.90;;;;;;5136944;27;20031;-72
2023/09/26 00:59:37;;;;;;;12.98;9.05;;;10.60;99.90;;;;;;5137450;27;20029;-72
2023/09/26 01:02:03;;;;;;;10.57;8.25;;;10.50;99.90;;;;;;5138074;27;20038;-72
2023/09/26 01:04:28;;;;;;;10.82;8.00;;;10.50;99.90;;;;;;5137855;27;20110;-73
2023/09/26 01:06:54;;;;;;;14.70;9.10;;;10.40;99.90;;;;;;5137988;27;20114;-72
2023/09/26 01:09:22;;;;;;;10.82;8.80;;;10.40;99.90;;;;;;5137539;27;20061;-72
2023/09/26 01:11:48;;;;;;;13.95;8.90;;;10.40;99.90;;;;;;5137694;27;20118;-72
2023/09/26 01:14:13;;;;;;;14.65;9.93;;;10.40;99.90;;;;;;5137482;27;20459;-71
2023/09/26 01:16:39;;;;;;;11.40;9.07;;;10.40;99.90;;;;;;5137777;27;20039;-72
2023/09/26 01:19:05;;;;;;;12.98;9.48;;;10.40;99.90;;;;;;5137434;27;20031;-72
2023/09/26 01:21:32;;;;;;;14.75;8.63;;;10.40;99.90;;;;;;5137650;27;20027;-72
2023/09/26 01:23:57;;;;;;;13.70;9.70;;;10.20;99.90;;;;;;5137717;27;20418;-72
2023/09/26 01:26:24;;;;;;;12.68;10.00;;;10.20;99.90;;;;;;5137321;27;20023;-72
2023/09/26 01:28:50;;;;;;;13.57;9.50;;;10.20;99.90;;;;;;5137263;27;20055;-72
2023/09/26 01:31:15;;;;;;;15.68;10.07;;;10.20;99.90;;;;;;5136994;27;20046;-72
2023/09/26 01:33:41;;;;;;;15.23;10.98;;;10.10;99.90;;;;;;5136934;27;20477;-72
2023/09/26 01:36:07;;;;;;;14.55;10.07;;;10.10;99.90;;;;;;5136565;27;20035;-72
2023/09/26 01:38:32;;;;;;;15.68;10.63;;;10.00;99.90;;;;;;5136645;27;20023;-72
2023/09/26 01:40:58;;;;;;;18.75;11.98;;;10.00;99.90;;;;;;5137017;27;20096;-72
2023/09/26 01:43:25;;;;;;;15.35;10.98;;;10.00;99.90;;;;;;5137055;27;20095;-72
2023/09/26 01:45:51;;;;;;;14.35;9.90;;;10.00;99.90;;;;;;5137029;27;20027;-73
2023/09/26 01:48:16;;;;;;;12.73;8.68;;;9.90;99.90;;;;;;5136935;27;20117;-72
2023/09/26 01:50:42;;;;;;;11.57;9.20;;;9.80;99.90;;;;;;5136255;27;20106;-72
2023/09/26 01:53:10;;;;;;;13.20;9.57;;;9.80;99.90;;;;;;5137168;27;20028;-72
2023/09/26 01:55:38;;;;;;;14.75;10.30;;;9.70;99.90;;;;;;5136795;27;20026;-73
2023/09/26 01:58:03;;;;;;;16.27;9.40;;;9.70;99.90;;;;;;5137010;27;20035;-72
2023/09/26 02:00:29;;;;;;;12.15;10.02;;;9.70;99.90;;;;;;5136547;27;20059;-72
2023/09/26 02:02:55;;;;;;;12.65;9.50;;;9.60;99.90;;;;;;5136395;27;20019;-72
2023/09/26 02:05:21;;;;;;;12.98;10.77;;;9.60;99.90;;;;;;5135993;27;20027;-72
2023/09/26 02:07:48;;;;;;;13.43;9.82;;;9.50;99.90;;;;;;5136645;27;20041;-72
2023/09/26 02:10:15;;;;;;;12.38;9.18;;;9.50;99.90;;;;;;5135808;27;20033;-72
2023/09/26 02:12:47;;;;;;;13.77;10.68;;;9.50;99.90;;;;;;5135713;27;20023;-72
2023/09/26 02:15:13;;;;;;;13.13;10.23;;;9.50;99.90;;;;;;5136273;27;20064;-72
2023/09/26 02:17:39;;;;;;;13.10;10.60;;;9.50;99.90;;;;;;5136216;27;20027;-72
2023/09/26 02:20:12;;;;;;;13.85;10.30;;;9.40;99.90;;;;;;5136169;27;20410;-72
2023/09/26 02:22:39;;;;;;;14.05;10.90;;;9.40;99.90;;;;;;5136524;27;20034;-72
2023/09/26 02:25:05;;;;;;;12.57;10.30;;;9.40;99.90;;;;;;5136072;27;20024;-72
2023/09/26 02:27:31;;;;;;;13.88;10.60;;;9.40;99.90;;;;;;5136408;27;20062;-72
2023/09/26 02:29:56;;;;;;;13.07;10.80;;;9.40;99.90;;;;;;5136042;27;20414;-72
2023/09/26 02:32:22;;;;;;;14.93;11.40;;;9.30;99.90;;;;;;5135626;27;20052;-72
2023/09/26 02:34:47;;;;;;;16.60;12.23;;;9.30;99.90;;;;;;5135889;27;20031;-72
2023/09/26 02:37:13;;;;;;;16.92;12.23;;;9.40;99.90;;;;;;5135511;27;20054;-72
2023/09/26 02:39:39;;;;;;;14.95;12.15;;;9.30;99.90;;;;;;5135147;27;20159;-72
2023/09/26 02:42:04;;;;;;;16.85;12.30;;;9.40;99.90;;;;;;5135880;27;20360;-73
2023/09/26 02:44:30;;;;;;;17.40;13.60;;;9.40;99.90;;;;;;5135795;27;20038;-73
2023/09/26 02:46:55;;;;;;;18.55;13.18;;;9.40;99.90;;;;;;5135489;27;20098;-72
2023/09/26 02:49:21;;;;;;;18.25;14.32;;;9.40;99.90;;;;;;5134701;27;20033;-72
2023/09/26 02:51:46;;;;;;;19.45;13.55;;;9.50;99.90;;;;;;5135956;27;20034;-72
2023/09/26 02:54:12;;;;;;;18.05;14.93;;;9.50;99.90;;;;;;5135867;27;20030;-72
2023/09/26 02:56:37;;;;;;;20.23;14.70;;;9.50;99.90;;;;;;5135774;27;20023;-73
2023/09/26 02:59:03;;;;;;;22.38;15.98;;;9.60;99.90;;;;;;5135729;27;20027;-74
2023/09/26 03:01:28;;;;;;;20.67;15.18;;;9.60;99.90;;;;;;5135322;27;20011;-73
2023/09/26 03:03:54;;;;;;;20.52;15.32;;;9.60;99.90;;;;;;5135771;27;20054;-73
2023/09/26 03:06:20;;;;;;;21.00;16.25;;;9.60;99.90;;;;;;5135335;27;20027;-72
2023/09/26 03:08:45;;;;;;;20.10;15.52;;;9.60;99.90;;;;;;5135309;27;20027;-73
2023/09/26 03:11:11;;;;;;;20.67;15.48;;;9.60;99.90;;;;;;5134550;27;20023;-74
2023/09/26 03:13:37;;;;;;;21.20;14.77;;;9.50;99.90;;;;;;5135057;27;20038;-73
2023/09/26 03:16:04;;;;;;;21.88;15.45;;;9.50;99.90;;;;;;5134698;27;20034;-73
2023/09/26 03:18:30;;;;;;;25.75;16.15;;;9.50;99.90;;;;;;5135306;27;20038;-73
2023/09/26 03:20:56;;;;;;;22.38;15.70;;;9.40;99.90;;;;;;5134863;27;20354;-72
2023/09/26 03:23:22;;;;;;;19.90;16.25;;;9.50;99.90;;;;;;5135238;27;20034;-72
2023/09/26 03:25:47;;;;;;;22.00;16.05;;;9.50;99.90;;;;;;5135195;27;20548;-71
2023/09/26 03:28:13;;;;;;;22.52;15.40;;;9.50;99.90;;;;;;5134955;27;20107;-71
2023/09/26 03:30:41;;;;;;;17.90;14.35;;;9.50;99.90;;;;;;5134929;27;20027;-72
2023/09/26 03:33:07;;;;;;;18.98;14.18;;;9.40;99.90;;;;;;5134422;27;20019;-72
2023/09/26 03:35:33;;;;;;;20.35;15.15;;;9.40;99.90;;;;;;5134290;27;20385;-73
2023/09/26 03:37:59;;;;;;;19.02;14.65;;;9.40;99.90;;;;;;5134665;27;20030;-72
2023/09/26 03:40:24;;;;;;;14.07;12.48;;;9.40;99.90;;;;;;5134115;27;20078;-72
2023/09/26 03:42:50;;;;;;;18.85;14.32;;;9.30;99.90;;;;;;5134964;28;20030;-72
2023/09/26 03:45:15;;;;;;;18.83;13.90;;;9.30;99.90;;;;;;5134265;28;20019;-72
2023/09/26 03:47:41;;;;;;;18.95;13.88;;;9.20;99.90;;;;;;5134410;28;20027;-71
2023/09/26 03:50:07;;;;;;;16.90;14.02;;;9.20;99.90;;;;;;5134529;28;20023;-71
2023/09/26 03:52:33;;;;;;;18.58;14.48;;;9.20;99.90;;;;;;5134884;27;20426;-71
2023/09/26 03:54:58;;;;;;;17.70;14.38;;;9.30;99.90;;;;;;5134763;28;20027;-71
2023/09/26 03:57:24;;;;;;;18.23;14.73;;;9.20;99.90;;;;;;5135020;28;20027;-71
2023/09/26 03:59:50;;;;;;;18.92;14.52;;;9.20;99.90;;;;;;5134688;28;20111;-71
2023/09/26 04:02:16;;;;;;;19.55;15.27;;;9.20;99.90;;;;;;5134691;28;20041;-71
2023/09/26 04:04:41;;;;;;;20.98;16.13;;;9.20;99.90;;;;;;5134751;27;20019;-71
2023/09/26 04:07:07;;;;;;;29.45;16.98;;;9.20;99.90;;;;;;5134557;28;20061;-70
2023/09/26 04:09:34;;;;;;;26.17;19.08;;;9.20;99.90;;;;;;5134283;28;20023;-71
2023/09/26 04:12:01;;;;;;;24.45;17.55;;;9.30;99.90;;;;;;5134685;27;20091;-71
2023/09/26 04:14:27;;;;;;;30.05;19.52;;;9.20;99.90;;;;;;5134573;27;20043;-71
2023/09/26 04:16:53;;;;;;;25.23;17.35;;;9.30;99.90;;;;;;5134585;28;20063;-71
2023/09/26 04:19:18;;;;;;;24.75;18.52;;;9.30;99.90;;;;;;5134424;28;20027;-71
2023/09/26 04:21:44;;;;;;;24.42;18.92;;;9.30;99.90;;;;;;5134705;27;20027;-71
2023/09/26 04:24:10;;;;;;;25.85;17.88;;;9.30;99.90;;;;;;5138242;27;20029;-71
2023/09/26 04:26:36;;;;;;;25.15;18.33;;;9.30;99.90;;;;;;5138363;27;20453;-71
2023/09/26 04:29:01;;;;;;;28.90;20.15;;;9.30;99.90;;;;;;5138425;27;20106;-71
2023/09/26 04:31:27;;;;;;;26.70;19.60;;;9.30;99.90;;;;;;5138062;27;20019;-71
2023/09/26 04:33:53;;;;;;;28.45;22.05;;;9.30;99.90;;;;;;5138007;27;20019;-71
2023/09/26 04:36:18;;;;;;;30.30;21.60;;;9.40;99.90;;;;;;5138246;27;20027;-71
2023/09/26 04:38:45;;;;;;;35.65;23.38;;;9.40;99.90;;;;;;5137649;27;20067;-71
2023/09/26 04:41:13;;;;;;;32.70;22.38;;;9.40;99.90;;;;;;5138048;27;20465;-71
2023/09/26 04:43:38;;;;;;;27.90;21.17;;;9.50;99.90;;;;;;5137760;27;20385;-71
2023/09/26 04:46:12;;;;;;;28.80;21.00;;;9.40;99.90;;;;;;5138047;27;20023;-72
2023/09/26 04:48:40;;;;;;;32.38;21.20;;;9.30;99.90;;;;;;5138119;27;20020;-72
2023/09/26 04:51:08;;;;;;;26.60;20.73;;;9.30;99.90;;;;;;5138076;27;20027;-71
2023/09/26 04:53:33;;;;;;;25.63;19.25;;;9.30;99.90;;;;;;5137603;27;20430;-71
2023/09/26 04:56:01;;;;;;;23.00;18.63;;;9.20;99.90;;;;;;5138157;27;20027;-71
2023/09/26 04:58:29;;;;;;;24.67;19.52;;;9.20;99.90;;;;;;5138003;27;20027;-71
2023/09/26 05:00:54;;;;;;;26.92;19.77;;;9.20;99.90;;;;;;5137341;27;20019;-76
2023/09/26 05:03:20;;;;;;;29.60;20.80;;;9.10;99.90;;;;;;5137389;27;20037;-71
2023/09/26 05:05:46;;;;;;;28.58;21.83;;;9.20;99.90;;;;;;5137113;27;20109;-71
2023/09/26 05:08:11;;;;;;;26.60;20.58;;;9.20;99.90;;;;;;5137025;27;20020;-71
2023/09/26 05:10:38;;;;;;;32.85;22.55;;;9.20;99.90;;;;;;5137609;27;20038;-71
2023/09/26 05:13:05;;;;;;;29.13;21.67;;;9.30;99.90;;;;;;5137888;27;20491;-71
2023/09/26 05:15:33;;;;;;;28.05;19.23;;;9.20;99.90;;;;;;5137138;27;20123;-71
2023/09/26 05:17:59;;;;;;;26.00;20.25;;;9.20;99.90;;;;;;5137492;27;20158;-71
2023/09/26 05:20:24;;;;;;;24.98;18.20;;;9.20;99.90;;;;;;5136983;27;20031;-71
2023/09/26 05:22:50;;;;;;;22.80;18.48;;;9.20;99.90;;;;;;5137352;27;20027;-71
2023/09/26 05:25:16;;;;;;;22.27;18.92;;;9.10;99.90;;;;;;5137391;27;20031;-71
2023/09/26 05:27:43;;;;;;;26.92;19.90;;;9.20;99.90;;;;;;5137590;27;20022;-71
2023/09/26 05:30:11;;;;;;;25.83;18.80;;;9.20;99.90;;;;;;5137307;27;20031;-71
2023/09/26 05:32:37;;;;;;;23.55;17.95;;;9.10;99.90;;;;;;5136902;27;20031;-71
2023/09/26 05:35:04;;;;;;;21.30;16.48;;;9.10;99.90;;;;;;5137264;27;20058;-71
2023/09/26 05:37:30;;;;;;;21.20;17.20;;;9.10;99.90;;;;;;5137033;27;20035;-72
2023/09/26 05:39:55;;;;;;;20.67;15.52;;;9.10;99.90;;;;;;5136266;27;20047;-70
2023/09/26 05:42:22;;;;;;;20.63;16.40;;;9.10;99.90;;;;;;5136950;27;20027;-71
2023/09/26 05:44:47;;;;;;;21.55;17.08;;;9.10;99.90;;;;;;5137176;27;20020;-71
2023/09/26 05:47:13;;;;;;;23.67;17.92;;;9.10;99.90;;;;;;5136894;27;20030;-76
2023/09/26 05:49:38;;;;;;;27.27;17.58;;;9.10;99.90;;;;;;5136593;27;20023;-70
2023/09/26 05:52:04;;;;;;;25.38;19.08;;;9.20;99.90;;;;;;5136413;27;20472;-70
2023/09/26 05:54:31;;;;;;;33.28;20.58;;;9.30;99.90;;;;;;5136729;27;20081;-71
2023/09/26 05:56:57;;;;;;;25.88;19.63;;;9.30;99.90;;;;;;5136212;27;20028;-71
2023/09/26 05:59:22;;;;;;;31.48;22.35;;;9.40;99.90;;;;;;5136111;27;20035;-71
2023/09/26 06:01:48;;;;;;;34.70;23.00;;;9.50;99.90;;;;;;5136657;27;20384;-71
2023/09/26 06:04:14;;;;;;;33.05;23.88;;;9.80;99.90;;;;;;5134355;27;20054;-72
2023/09/26 06:06:39;;;;;;;33.03;23.08;;;10.00;99.90;;;;;;5134913;27;20385;-73
2023/09/26 06:09:05;;;;;;;37.42;24.45;;;10.10;99.90;;;;;;5124580;27;20029;-72
2023/09/26 06:11:30;;;;;;;28.67;22.88;;;10.30;99.90;;;;;;5132420;27;20023;-72
2023/09/26 06:13:56;;;;;;;29.48;22.60;;;10.40;99.90;;;;;;5132633;27;20102;-72
2023/09/26 06:16:22;;;;;;;29.35;21.40;;;10.60;99.90;;;;;;5131500;27;20023;-72
2023/09/26 06:18:47;;;;;;;27.27;20.60;;;10.70;99.90;;;;;;5130727;27;20455;-72
2023/09/26 06:21:14;;;;;;;22.63;19.25;;;11.00;99.90;;;;;;5132623;27;20031;-72
2023/09/26 06:23:40;;;;;;;17.23;13.95;;;12.30;99.90;;;;;;5133681;27;20055;-72
2023/09/26 06:26:07;;;;;;;13.60;9.30;;;14.20;99.90;;;;;;5133015;27;20084;-73
2023/09/26 06:28:33;;;;;;;9.18;6.95;;;15.70;99.90;;;;;;5136391;27;20034;-72
2023/09/26 06:31:07;;;;;;;8.05;6.40;;;16.80;99.90;;;;;;5134589;27;20071;-76
2023/09/26 06:33:34;;;;;;;9.52;5.70;;;18.00;33.00;;;;;;5131241;27;20034;-76
2023/09/26 06:36:00;;;;;;;10.73;5.72;;;19.30;99.90;;;;;;5133570;27;20033;-73
2023/09/26 06:38:25;;;;;;;6.90;5.00;;;20.00;1.00;;;;;;5133525;27;20039;-74
2023/09/26 06:41:07;;;;;;;8.52;5.35;;;20.50;99.90;;;;;;5134508;27;20035;-74
2023/09/26 06:43:33;;;;;;;5.93;5.13;;;21.00;99.90;;;;;;5133037;27;20504;-73
2023/09/26 06:46:05;;;;;;;7.78;4.88;;;21.20;99.90;;;;;;5125520;27;20083;-74
2023/09/26 06:48:31;;;;;;;7.30;4.65;;;21.40;1.00;;;;;;5124035;27;20035;-74
2023/09/26 06:50:56;;;;;;;7.57;4.72;;;21.40;1.00;;;;;;5126822;27;20035;-74
2023/09/26 06:53:22;;;;;;;7.88;4.95;;;21.80;99.90;;;;;;5135244;27;20054;-73
2023/09/26 06:55:48;;;;;;;9.13;4.47;;;22.40;99.90;;;;;;5132524;27;20472;-74
2023/09/26 06:58:13;;;;;;;7.55;4.80;;;22.40;1.00;;;;;;5133170;27;20035;-74
2023/09/26 07:00:39;;;;;;;7.90;4.80;;;22.20;99.90;;;;;;5132103;27;20023;-74
2023/09/26 07:03:05;;;;;;;6.47;4.25;;;23.00;99.90;;;;;;5133531;27;20031;-74
2023/09/26 07:05:31;;;;;;;7.80;4.40;;;22.70;99.90;;;;;;5130811;27;20101;-74
2023/09/26 07:07:57;;;;;;;5.30;4.35;;;22.70;1.00;;;;;;5129287;27;20161;-74
2023/09/26 07:10:23;;;;;;;4.97;4.40;;;23.00;99.90;;;;;;5132808;27;20122;-74
2023/09/26 07:12:49;;;;;;;6.38;4.60;;;22.90;99.90;;;;;;5131970;27;20110;-74
2023/09/26 07:15:15;;;;;;;8.65;4.65;;;22.30;1.00;;;;;;5130343;27;20477;-74
2023/09/26 07:17:41;;;;;;;6.10;4.75;;;22.10;1.00;;;;;;5132885;27;20127;-74
2023/09/26 07:20:13;;;;;;;11.55;5.03;;;22.80;99.90;;;;;;5130895;27;20027;-74
2023/09/26 07:22:40;;;;;;;7.88;4.70;;;22.50;99.90;;;;;;5128305;27;20472;-75
2023/09/26 07:25:06;;;;;;;8.15;4.60;;;23.30;20.90;;;;;;5130930;27;20365;-77
2023/09/26 07:27:32;;;;;;;9.10;4.45;;;23.60;1.00;;;;;;5128158;27;20027;-74
2023/09/26 07:29:57;;;;;;;9.98;4.88;;;24.20;1.00;;;;;;5133050;27;20027;-74
2023/09/26 07:32:23;;;;;;;6.25;4.78;;;24.10;99.90;;;;;;5131146;27;20027;-74
2023/09/26 07:34:49;;;;;;;6.75;4.60;;;24.10;1.00;;;;;;5130293;27;20031;-74
2023/09/26 07:37:14;;;;;;;8.23;4.53;;;24.60;99.90;;;;;;5129834;27;20027;-74
2023/09/26 07:39:44;;;;;;;6.47;4.28;;;24.80;99.90;;;;;;5131525;27;20035;-74
2023/09/26 07:42:09;;;;;;;4.40;3.97;;;24.90;99.90;;;;;;5127667;27;20023;-73
2023/09/26 07:44:35;;;;;;;6.65;4.30;;;24.80;99.90;;;;;;5132395;27;20023;-74
2023/09/26 07:47:00;;;;;;;7.15;4.40;;;24.90;99.90;;;;;;5128432;27;20031;-73
2023/09/26 07:49:26;;;;;;;5.88;4.10;;;24.70;99.90;;;;;;5130408;27;20113;-74
2023/09/26 07:51:52;;;;;;;4.32;3.85;;;24.40;1.00;;;;;;5131968;27;20114;-74
2023/09/26 07:54:17;;;;;;;4.95;3.72;;;23.90;99.90;;;;;;5129955;27;20031;-74
2023/09/26 07:56:43;;;;;;;4.90;4.28;;;24.30;1.00;;;;;;5134969;27;20031;-74
2023/09/26 07:59:08;;;;;;;6.07;4.13;;;25.50;99.90;;;;;;5134109;27;20027;-74
2023/09/26 08:01:34;;;;;;;6.63;3.90;;;26.40;60.20;;;;;;5132728;27;20015;-74
2023/09/26 08:03:59;;;;;;;10.63;3.90;;;25.40;62.90;;;;;;5137714;27;20034;-74
2023/09/26 08:06:25;;;;;;;5.20;3.95;;;25.60;93.60;;;;;;5137352;27;20052;-74
2023/09/26 08:08:50;;;;;;;6.65;3.97;;;26.00;43.50;;;;;;5130893;27;20159;-78
2023/09/26 08:11:16;;;;;;;4.55;3.80;;;26.00;31.50;;;;;;5137841;27;20389;-74
2023/09/26 08:13:42;;;;;;;4.47;3.90;;;25.20;99.90;;;;;;5128670;27;20024;-74
2023/09/26 08:16:08;;;;;;;5.95;3.80;;;25.90;85.80;;;;;;5136066;27;20399;-74
2023/09/26 08:18:34;;;;;;;5.22;3.55;;;26.00;97.00;;;;;;5128152;27;20080;-74
2023/09/26 08:20:59;;;;;;;4.78;4.03;;;26.00;99.90;;;;;;5136728;27;20083;-75
2023/09/26 08:23:26;;;;;;;4.00;3.30;;;26.50;34.90;;;;;;5135205;27;20019;-74
2023/09/26 08:25:57;;;;;;;6.55;3.75;;;27.60;1.00;;;;;;5136477;27;20035;-74
2023/09/26 08:28:22;;;;;;;6.30;3.92;;;26.10;1.00;;;;;;5120831;27;20019;-74
2023/09/26 08:30:48;;;;;;;5.43;4.00;;;25.90;99.90;;;;;;5133928;27;20453;-74
2023/09/26 08:33:14;;;;;;;4.47;3.97;;;25.00;99.90;;;;;;5139167;27;20439;-74
2023/09/26 08:35:39;;;;;;;4.15;3.75;;;24.30;99.90;;;;;;5137248;27;20031;-74
2023/09/26 08:38:05;;;;;;;4.40;4.00;;;24.20;1.00;;;;;;5136250;27;20050;-74
2023/09/26 08:40:30;;;;;;;5.43;4.10;;;24.20;99.90;;;;;;5135186;27;20043;-74
2023/09/26 08:42:57;;;;;;;5.70;3.58;;;25.20;99.90;;;;;;5135886;27;20027;-74
2023/09/26 08:45:25;;;;;;;5.80;3.75;;;25.80;99.90;;;;;;5131763;27;20442;-75
2023/09/26 08:47:54;;;;;;;5.55;3.83;;;25.40;99.90;;;;;;5133897;27;20034;-74
2023/09/26 08:50:22;;;;;;;4.95;3.85;;;25.30;99.90;;;;;;5134575;27;20765;-74
2023/09/26 08:52:47;;;;;;;5.15;3.72;;;25.20;99.90;;;;;;5127122;27;20031;-74
2023/09/26 08:55:13;;;;;;;6.25;4.10;;;26.30;99.90;;;;;;5135270;27;20468;-75
2023/09/26 08:57:38;;;;;;;4.32;3.70;;;26.70;37.60;;;;;;5135110;27;20031;-75
2023/09/26 09:00:08;;;;;;;7.47;3.50;;;26.50;53.10;;;;;;5135559;27;20031;-74
2023/09/26 09:02:33;;;;;;;4.30;3.90;;;25.90;99.90;;;;;;5134294;27;20027;-74
2023/09/26 09:04:59;;;;;;;15.52;4.43;;;26.30;99.90;;;;;;5134988;27;20039;-74
2023/09/26 09:07:25;;;;;;;4.63;4.15;;;27.00;60.60;;;;;;5134302;27;20019;-74
2023/09/26 09:10:10;;;;;;;9.23;3.67;;;27.10;29.10;;;;;;5134491;27;20396;-74
2023/09/26 09:12:37;;;;;;;6.78;3.92;;;27.10;97.20;;;;;;5137525;27;20038;-74
2023/09/26 09:15:20;;;;;;;6.50;3.90;;;26.10;99.90;;;;;;5135381;27;21793;-74
2023/09/26 09:17:48;;;;;;;6.43;3.92;;;26.60;99.90;;;;;;5134040;27;20034;-74
2023/09/26 09:20:26;;;;;;;8.32;4.28;;;26.40;99.90;;;;;;5130664;27;20039;-74
2023/09/26 09:22:59;;;;;;;7.40;4.25;;;25.80;99.90;;;;;;5130928;27;20031;-74
2023/09/26 09:25:29;;;;;;;5.68;3.78;;;26.10;99.90;;;;;;5131124;27;20106;-74
2023/09/26 09:27:59;;;;;;;5.50;3.80;;;26.50;99.90;;;;;;5135523;27;20024;-74
2023/09/26 09:30:24;;;;;;;4.32;3.90;;;27.00;99.90;;;;;;5132398;27;20465;-74
2023/09/26 09:32:50;;;;;;;4.70;3.90;;;26.60;58.30;;;;;;5133820;27;20077;-74
2023/09/26 09:35:17;;;;;;;5.22;3.90;;;26.90;99.90;;;;;;5133008;27;20148;-75
2023/09/26 09:37:43;;;;;;;6.55;4.10;;;26.50;99.90;;;;;;5133791;27;20038;-74
2023/09/26 09:40:09;;;;;;;7.90;4.35;;;26.90;99.90;;;;;;5128785;27;20119;-74
2023/09/26 09:42:35;;;;;;;6.22;4.43;;;26.20;99.90;;;;;;5131153;27;20529;-74
2023/09/26 09:45:04;;;;;;;5.00;3.45;;;26.20;99.90;;;;;;5135196;27;20049;-74
2023/09/26 09:47:33;;;;;;;4.38;3.63;;;26.20;99.90;;;;;;5124203;27;20015;-74
2023/09/26 09:50:00;;;;;;;6.18;3.38;;;26.60;99.90;;;;;;5133263;27;20499;-75
2023/09/26 09:52:31;;;;;;;3.78;2.85;;;27.40;99.90;;;;;;5134639;27;20027;-75
2023/09/26 09:54:57;;;;;;;6.50;3.08;;;28.00;84.90;;;;;;5132204;27;20084;-74
2023/09/26 09:57:27;;;;;;;6.07;3.35;;;27.90;1.00;;;;;;5133533;27;20023;-75
2023/09/26 09:59:53;;;;;;;6.20;3.78;;;27.50;1.00;;;;;;5130656;27;20076;-75
2023/09/26 10:02:21;;;;;;;5.25;3.83;;;27.90;1.00;;;;;;5133281;27;20477;-75
2023/09/26 10:04:47;;;;;;;9.15;4.10;;;27.60;19.70;;;;;;5133186;27;20473;-74
2023/09/26 10:07:15;;;;;;;5.22;3.55;;;26.70;42.90;;;;;;5133583;27;20079;-75
2023/09/26 10:09:41;;;;;;;3.00;2.72;;;27.30;21.70;;;;;;5135728;27;20035;-74
2023/09/26 10:12:09;;;;;;;4.97;3.25;;;27.40;17.00;;;;;;5133959;27;20027;-74
2023/09/26 10:14:35;;;;;;;5.97;3.10;;;27.90;1.00;;;;;;5133720;27;20117;-74
2023/09/26 10:17:03;;;;;;;6.72;3.28;;;28.20;1.00;;;;;;5135573;27;20116;-74
2023/09/26 10:19:31;;;;;;;6.97;3.83;;;28.20;1.00;;;;;;5132266;27;20027;-74
2023/09/26 10:22:18;;;;;;;3.60;3.30;;;27.50;1.00;;;;;;5134228;27;20493;-74
2023/09/26 10:24:52;;;;;;;7.53;3.33;;;27.70;1.00;;;;;;5134622;27;20517;-74
2023/09/26 10:27:40;;;;;;;5.47;3.10;;;27.80;1.00;;;;;;5135563;27;20016;-74
2023/09/26 10:30:07;;;;;;;8.88;3.47;;;27.70;1.00;;;;;;5123135;27;20027;-74
2023/09/26 10:32:34;;;;;;;5.40;3.30;;;27.90;1.00;;;;;;5135705;27;20027;-74
2023/09/26 10:35:22;;;;;;;4.45;3.20;;;28.00;1.00;;;;;;5133114;27;20504;-74
2023/09/26 10:37:49;;;;;;;5.30;3.17;;;27.50;10.40;;;;;;5138842;27;20618;-74
2023/09/26 10:40:17;;;;;;;7.50;3.40;;;28.40;1.00;;;;;;5134135;27;20481;-74
2023/09/26 10:42:45;;;;;;;4.90;3.40;;;28.40;1.00;;;;;;5133946;27;20091;-74
2023/09/26 10:45:11;;;;;;;5.38;2.60;;;28.30;4.90;;;;;;5133181;27;20023;-74
2023/09/26 10:47:39;;;;;;;3.40;2.95;;;28.20;1.00;;;;;;5134281;27;20054;-74
2023/09/26 10:50:12;;;;;;;5.75;3.20;;;28.10;1.00;;;;;;5135049;27;20031;-73
2023/09/26 10:52:46;;;;;;;3.50;2.85;;;28.40;1.00;;;;;;5133733;27;20092;-74
2023/09/26 10:55:12;;;;;;;3.95;2.80;;;28.60;1.00;;;;;;5137191;27;20035;-73
2023/09/26 10:57:39;;;;;;;5.35;2.63;;;28.00;1.00;;;;;;5129551;27;20118;-74
2023/09/26 11:00:13;;;;;;;5.07;2.75;;;28.10;1.00;;;;;;5132148;27;20023;-74
2023/09/26 11:02:39;;;;;;;4.43;2.50;;;27.90;1.00;;;;;;5132242;27;20023;-74
2023/09/26 11:05:08;;;;;;;5.72;3.05;;;28.10;1.00;;;;;;5137106;27;20030;-74
2023/09/26 11:07:35;;;;;;;4.00;2.40;;;27.80;1.00;;;;;;5130148;27;20035;-74
2023/09/26 11:10:03;;;;;;;4.40;2.47;;;27.40;1.00;;;;;;5130824;27;20038;-73
2023/09/26 11:12:30;;;;;;;5.47;2.70;;;27.30;1.00;;;;;;5134516;27;20074;-74
2023/09/26 11:14:55;;;;;;;3.22;2.08;;;27.10;1.00;;;;;;5134357;27;20038;-72
2023/09/26 11:17:23;;;;;;;4.20;2.55;;;26.30;1.00;;;;;;5131657;27;20031;-73
2023/09/26 11:19:50;;;;;;;4.15;2.60;;;25.70;25.30;;;;;;5132850;27;20027;-73
2023/09/26 11:22:16;;;;;;;3.70;2.47;;;25.20;44.90;;;;;;5131016;27;20019;-72
2023/09/26 11:24:41;;;;;;;3.78;2.53;;;25.20;99.90;;;;;;5129848;27;20057;-72
2023/09/26 11:27:09;;;;;;;3.55;3.03;;;25.00;99.90;;;;;;5132402;27;20037;-72
2023/09/26 11:29:35;;;;;;;6.93;2.80;;;25.10;99.90;;;;;;5132719;27;20109;-72
2023/09/26 11:32:03;;;;;;;4.65;2.88;;;24.90;99.90;;;;;;5133270;27;20033;-72
2023/09/26 11:34:29;;;;;;;4.43;2.78;;;24.60;99.90;;;;;;5131749;27;20037;-72
2023/09/26 11:36:55;;;;;;;3.42;2.60;;;24.70;1.00;;;;;;5131152;27;20068;-72
2023/09/26 11:39:22;;;;;;;5.72;2.80;;;24.60;1.00;;;;;;5135357;27;20055;-72
2023/09/26 11:42:11;;;;;;;6.65;3.10;;;24.70;1.00;;;;;;5135787;27;20476;-72
2023/09/26 11:44:37;;;;;;;3.88;2.55;;;25.00;1.00;;;;;;5133441;27;20027;-72
2023/09/26 11:47:04;;;;;;;4.65;2.70;;;24.80;1.00;;;;;;5134243;27;20023;-72
2023/09/26 11:49:30;;;;;;;3.20;2.70;;;24.80;1.00;;;;;;5137858;27;20392;-72
2023/09/26 11:51:56;;;;;;;4.03;2.78;;;24.90;1.00;;;;;;5130495;27;20019;-72
2023/09/26 11:54:22;;;;;;;5.32;2.90;;;24.80;1.00;;;;;;5126782;27;20027;-72
2023/09/26 11:56:48;;;;;;;5.30;2.58;;;24.90;1.00;;;;;;5127821;27;20035;-72
2023/09/26 11:59:14;;;;;;;3.00;2.40;;;25.10;1.00;;;;;;5132257;27;20079;-72
2023/09/26 12:01:42;;;;;;;5.65;2.72;;;25.30;99.90;;;;;;5136176;27;20031;-72
2023/09/26 12:04:13;;;;;;;3.53;2.33;;;25.30;99.90;;;;;;5132336;27;20053;-72
2023/09/26 12:06:41;;;;;;;2.85;2.42;;;25.20;99.90;;;;;;5133641;27;20392;-72
2023/09/26 12:09:17;;;;;;;3.00;2.70;;;25.00;99.90;;;;;;5133358;27;20091;-72
2023/09/26 12:11:44;;;;;;;3.47;2.47;;;24.90;99.90;;;;;;5133142;27;20536;-73
2023/09/26 12:14:09;;;;;;;3.67;2.38;;;25.00;99.90;;;;;;5130150;27;20388;-73
2023/09/26 12:16:35;;;;;;;3.85;2.33;;;25.20;99.90;;;;;;5122702;27;20030;-72
2023/09/26 12:19:00;;;;;;;5.53;2.50;;;25.30;99.90;;;;;;5129017;27;20031;-73
2023/09/26 12:21:26;;;;;;;4.40;2.50;;;25.00;99.90;;;;;;5130526;27;20027;-73
2023/09/26 12:23:52;;;;;;;4.55;2.80;;;24.90;99.90;;;;;;5132363;27;20035;-73
2023/09/26 12:26:17;;;;;;;3.92;2.17;;;24.60;99.90;;;;;;5130519;28;20027;-72
2023/09/26 12:28:43;;;;;;;4.43;2.70;;;24.40;99.90;;;;;;5133047;28;20072;-73
2023/09/26 12:31:08;;;;;;;3.58;2.15;;;24.50;99.90;;;;;;5126833;27;20038;-72
2023/09/26 12:33:34;;;;;;;2.83;2.00;;;24.60;4.40;;;;;;5125867;27;20035;-72
2023/09/26 12:35:59;;;;;;;5.38;2.10;;;24.70;1.00;;;;;;5123376;28;20427;-72
2023/09/26 12:38:25;;;;;;;3.25;2.50;;;24.80;1.00;;;;;;5123909;27;20027;-72
2023/09/26 12:40:51;;;;;;;4.32;2.47;;;24.80;1.00;;;;;;5125841;27;20031;-73